sensor_id;sensor_type;location;lat;lon;timestamp;P1;durP1;ratioP1;P2;durP2;ratioP2
19036;SDS011;9651;49.138;8.900;2023-04-24T00:04:01;0.90;;;0.60;;
19036;SDS011;9651;49.138;8.900;2023-04-24T00:08:05;0.90;;;0.50;;
19036;SDS011;9651;49.138;8.900;2023-04-24T00:12:07;1.50;;;0.70;;
19036;SDS011;9651;49.138;8.900;2023-04-24T00:16:09;1.23;;;0.57;;
19036;SDS011;9651;49.138;8.900;2023-04-24T00:20:11;1.27;;;0.60;;
19036;SDS011;9651;49.138;8.900;2023-04-24T00:24:16;2.47;;;0.70;;
19036;SDS011;9651;49.138;8.900;2023-04-24T00:28:18;2.63;;;0.60;;
19036;SDS011;9651;49.138;8.900;2023-04-24T00:32:20;1.77;;;0.70;;
19036;SDS011;9651;49.138;8.900;2023-04-24T00:36:22;4.20;;;0.73;;
19036;SDS011;9651;49.138;8.900;2023-04-24T00:40:27;0.73;;;0.60;;
19036;SDS011;9651;49.138;8.900;2023-04-24T00:44:30;2.27;;;1.00;;
19036;SDS011;9651;49.138;8.900;2023-04-24T00:48:32;1.70;;;0.60;;
19036;SDS011;9651;49.138;8.900;2023-04-24T00:52:34;1.00;;;0.50;;
19036;SDS011;9651;49.138;8.900;2023-04-24T00:56:38;2.00;;;0.60;;
19036;SDS011;9651;49.138;8.900;2023-04-24T01:00:41;1.60;;;0.60;;
19036;SDS011;9651;49.138;8.900;2023-04-24T01:04:43;2.80;;;0.60;;
19036;SDS011;9651;49.138;8.900;2023-04-24T01:08:46;2.03;;;0.90;;
19036;SDS011;9651;49.138;8.900;2023-04-24T01:12:51;0.43;;;0.40;;
19036;SDS011;9651;49.138;8.900;2023-04-24T01:16:53;0.50;;;0.50;;
19036;SDS011;9651;49.138;8.900;2023-04-24T01:20:56;0.70;;;0.53;;
19036;SDS011;9651;49.138;8.900;2023-04-24T01:25:01;1.30;;;0.40;;
19036;SDS011;9651;49.138;8.900;2023-04-24T01:29:04;2.50;;;0.80;;
19036;SDS011;9651;49.138;8.900;2023-04-24T01:33:06;5.10;;;0.70;;
19036;SDS011;9651;49.138;8.900;2023-04-24T01:37:08;2.83;;;0.60;;
19036;SDS011;9651;49.138;8.900;2023-04-24T01:41:11;2.20;;;0.70;;
19036;SDS011;9651;49.138;8.900;2023-04-24T01:45:13;1.63;;;0.57;;
19036;SDS011;9651;49.138;8.900;2023-04-24T01:49:15;5.00;;;0.70;;
19036;SDS011;9651;49.138;8.900;2023-04-24T01:53:19;0.50;;;0.50;;
19036;SDS011;9651;49.138;8.900;2023-04-24T01:57:22;1.37;;;0.80;;
19036;SDS011;9651;49.138;8.900;2023-04-24T02:01:24;3.77;;;0.80;;
19036;SDS011;9651;49.138;8.900;2023-04-24T02:05:26;1.23;;;0.60;;
19036;SDS011;9651;49.138;8.900;2023-04-24T02:09:29;2.10;;;0.70;;
19036;SDS011;9651;49.138;8.900;2023-04-24T02:13:32;1.90;;;0.90;;
19036;SDS011;9651;49.138;8.900;2023-04-24T02:17:35;1.20;;;0.80;;
19036;SDS011;9651;49.138;8.900;2023-04-24T02:21:38;0.90;;;0.60;;
19036;SDS011;9651;49.138;8.900;2023-04-24T02:25:42;0.73;;;0.53;;
19036;SDS011;9651;49.138;8.900;2023-04-24T02:29:45;1.00;;;0.90;;
19036;SDS011;9651;49.138;8.900;2023-04-24T02:33:47;1.30;;;0.70;;
19036;SDS011;9651;49.138;8.900;2023-04-24T02:37:49;0.80;;;0.80;;
19036;SDS011;9651;49.138;8.900;2023-04-24T02:41:51;2.17;;;0.70;;
19036;SDS011;9651;49.138;8.900;2023-04-24T02:45:55;6.27;;;3.20;;
19036;SDS011;9651;49.138;8.900;2023-04-24T02:49:56;3.23;;;1.57;;
19036;SDS011;9651;49.138;8.900;2023-04-24T02:53:58;1.93;;;1.00;;
19036;SDS011;9651;49.138;8.900;2023-04-24T02:58:00;2.10;;;0.70;;
19036;SDS011;9651;49.138;8.900;2023-04-24T03:02:04;1.27;;;0.90;;
19036;SDS011;9651;49.138;8.900;2023-04-24T03:06:06;1.40;;;0.90;;
19036;SDS011;9651;49.138;8.900;2023-04-24T03:10:08;2.50;;;0.90;;
19036;SDS011;9651;49.138;8.900;2023-04-24T03:14:10;3.27;;;0.80;;
19036;SDS011;9651;49.138;8.900;2023-04-24T03:18:13;0.67;;;0.53;;
19036;SDS011;9651;49.138;8.900;2023-04-24T03:22:16;2.07;;;1.07;;
19036;SDS011;9651;49.138;8.900;2023-04-24T03:26:18;2.40;;;1.10;;
19036;SDS011;9651;49.138;8.900;2023-04-24T03:30:34;3.67;;;1.80;;
19036;SDS011;9651;49.138;8.900;2023-04-24T03:34:39;2.00;;;0.90;;
19036;SDS011;9651;49.138;8.900;2023-04-24T03:38:43;2.20;;;1.43;;
19036;SDS011;9651;49.138;8.900;2023-04-24T03:43:01;0.90;;;0.47;;
19036;SDS011;9651;49.138;8.900;2023-04-24T03:47:03;1.13;;;0.53;;
19036;SDS011;9651;49.138;8.900;2023-04-24T03:51:07;0.73;;;0.50;;
19036;SDS011;9651;49.138;8.900;2023-04-24T03:55:12;3.00;;;0.80;;
19036;SDS011;9651;49.138;8.900;2023-04-24T03:59:18;1.57;;;0.50;;
19036;SDS011;9651;49.138;8.900;2023-04-24T04:03:27;0.87;;;0.83;;
19036;SDS011;9651;49.138;8.900;2023-04-24T04:07:31;1.27;;;1.10;;
19036;SDS011;9651;49.138;8.900;2023-04-24T04:11:34;1.40;;;1.10;;
19036;SDS011;9651;49.138;8.900;2023-04-24T04:15:36;2.30;;;1.00;;
19036;SDS011;9651;49.138;8.900;2023-04-24T04:19:38;1.77;;;1.33;;
19036;SDS011;9651;49.138;8.900;2023-04-24T04:23:43;2.17;;;1.97;;
19036;SDS011;9651;49.138;8.900;2023-04-24T04:27:52;1.83;;;1.20;;
19036;SDS011;9651;49.138;8.900;2023-04-24T04:31:54;3.60;;;1.60;;
19036;SDS011;9651;49.138;8.900;2023-04-24T04:35:57;3.30;;;1.63;;
19036;SDS011;9651;49.138;8.900;2023-04-24T04:40:03;1.90;;;1.50;;
19036;SDS011;9651;49.138;8.900;2023-04-24T04:44:12;1.83;;;1.70;;
19036;SDS011;9651;49.138;8.900;2023-04-24T04:48:16;2.23;;;1.87;;
19036;SDS011;9651;49.138;8.900;2023-04-24T04:52:18;3.87;;;1.80;;
19036;SDS011;9651;49.138;8.900;2023-04-24T04:56:40;2.77;;;1.87;;
19036;SDS011;9651;49.138;8.900;2023-04-24T05:00:42;5.23;;;1.97;;
19036;SDS011;9651;49.138;8.900;2023-04-24T05:04:54;1.63;;;1.40;;
19036;SDS011;9651;49.138;8.900;2023-04-24T05:08:56;2.50;;;2.20;;
19036;SDS011;9651;49.138;8.900;2023-04-24T05:13:10;3.53;;;1.57;;
19036;SDS011;9651;49.138;8.900;2023-04-24T05:17:12;2.10;;;1.87;;
19036;SDS011;9651;49.138;8.900;2023-04-24T05:21:14;2.57;;;1.80;;
19036;SDS011;9651;49.138;8.900;2023-04-24T05:25:19;2.33;;;2.13;;
19036;SDS011;9651;49.138;8.900;2023-04-24T05:29:29;3.77;;;1.80;;
19036;SDS011;9651;49.138;8.900;2023-04-24T05:33:31;4.07;;;1.80;;
19036;SDS011;9651;49.138;8.900;2023-04-24T05:37:33;2.33;;;1.80;;
19036;SDS011;9651;49.138;8.900;2023-04-24T05:41:36;3.37;;;1.50;;
19036;SDS011;9651;49.138;8.900;2023-04-24T05:45:40;3.30;;;1.80;;
19036;SDS011;9651;49.138;8.900;2023-04-24T05:49:42;2.17;;;1.90;;
19036;SDS011;9651;49.138;8.900;2023-04-24T05:53:43;2.77;;;1.83;;
19036;SDS011;9651;49.138;8.900;2023-04-24T05:57:46;2.80;;;1.80;;
19036;SDS011;9651;49.138;8.900;2023-04-24T06:01:50;3.63;;;1.80;;
19036;SDS011;9651;49.138;8.900;2023-04-24T06:05:54;6.50;;;1.87;;
19036;SDS011;9651;49.138;8.900;2023-04-24T06:09:57;1.80;;;1.70;;
19036;SDS011;9651;49.138;8.900;2023-04-24T06:13:59;2.43;;;1.90;;
19036;SDS011;9651;49.138;8.900;2023-04-24T06:18:14;2.87;;;1.90;;
19036;SDS011;9651;49.138;8.900;2023-04-24T06:22:16;1.80;;;1.57;;
19036;SDS011;9651;49.138;8.900;2023-04-24T06:26:18;3.17;;;1.80;;
19036;SDS011;9651;49.138;8.900;2023-04-24T06:30:20;3.93;;;1.70;;
19036;SDS011;9651;49.138;8.900;2023-04-24T06:34:23;3.07;;;1.80;;
19036;SDS011;9651;49.138;8.900;2023-04-24T06:38:25;2.78;;;1.75;;
19036;SDS011;9651;49.138;8.900;2023-04-24T06:42:29;1.90;;;1.33;;
19036;SDS011;9651;49.138;8.900;2023-04-24T06:46:31;2.92;;;1.77;;
19036;SDS011;9651;49.138;8.900;2023-04-24T06:50:34;2.00;;;1.73;;
19036;SDS011;9651;49.138;8.900;2023-04-24T06:54:36;2.70;;;1.50;;
19036;SDS011;9651;49.138;8.900;2023-04-24T06:58:38;3.78;;;1.90;;
19036;SDS011;9651;49.138;8.900;2023-04-24T07:02:40;2.88;;;1.88;;
19036;SDS011;9651;49.138;8.900;2023-04-24T07:06:43;4.15;;;1.60;;
19036;SDS011;9651;49.138;8.900;2023-04-24T07:10:47;2.72;;;1.67;;
19036;SDS011;9651;49.138;8.900;2023-04-24T07:14:50;2.93;;;1.70;;
19036;SDS011;9651;49.138;8.900;2023-04-24T07:18:51;3.03;;;1.43;;
19036;SDS011;9651;49.138;8.900;2023-04-24T07:22:55;2.67;;;1.67;;
19036;SDS011;9651;49.138;8.900;2023-04-24T07:26:57;2.70;;;2.00;;
19036;SDS011;9651;49.138;8.900;2023-04-24T07:30:58;2.33;;;1.57;;
19036;SDS011;9651;49.138;8.900;2023-04-24T07:35:00;3.13;;;1.70;;
19036;SDS011;9651;49.138;8.900;2023-04-24T07:39:04;2.70;;;1.60;;
19036;SDS011;9651;49.138;8.900;2023-04-24T07:43:06;5.65;;;1.35;;
19036;SDS011;9651;49.138;8.900;2023-04-24T07:47:08;2.70;;;1.53;;
19036;SDS011;9651;49.138;8.900;2023-04-24T07:51:10;2.80;;;1.40;;
19036;SDS011;9651;49.138;8.900;2023-04-24T07:55:14;2.27;;;1.10;;
19036;SDS011;9651;49.138;8.900;2023-04-24T07:59:16;2.40;;;1.20;;
19036;SDS011;9651;49.138;8.900;2023-04-24T08:03:18;3.37;;;1.30;;
19036;SDS011;9651;49.138;8.900;2023-04-24T08:07:20;3.10;;;1.60;;
19036;SDS011;9651;49.138;8.900;2023-04-24T08:11:24;4.00;;;1.30;;
19036;SDS011;9651;49.138;8.900;2023-04-24T08:15:27;2.93;;;1.53;;
19036;SDS011;9651;49.138;8.900;2023-04-24T08:19:29;3.20;;;1.63;;
19036;SDS011;9651;49.138;8.900;2023-04-24T08:23:31;3.20;;;1.50;;
19036;SDS011;9651;49.138;8.900;2023-04-24T08:27:34;2.70;;;1.63;;
19036;SDS011;9651;49.138;8.900;2023-04-24T08:31:36;1.70;;;1.20;;
19036;SDS011;9651;49.138;8.900;2023-04-24T08:35:38;3.03;;;1.70;;
19036;SDS011;9651;49.138;8.900;2023-04-24T08:39:40;2.30;;;0.90;;
19036;SDS011;9651;49.138;8.900;2023-04-24T08:43:43;1.33;;;0.90;;
19036;SDS011;9651;49.138;8.900;2023-04-24T08:47:47;2.57;;;0.80;;
19036;SDS011;9651;49.138;8.900;2023-04-24T08:51:49;1.00;;;0.70;;
19036;SDS011;9651;49.138;8.900;2023-04-24T08:55:54;2.57;;;0.83;;
19036;SDS011;9651;49.138;8.900;2023-04-24T08:59:58;2.15;;;0.90;;
19036;SDS011;9651;49.138;8.900;2023-04-24T09:04:01;0.75;;;0.70;;
19036;SDS011;9651;49.138;8.900;2023-04-24T09:08:04;1.10;;;1.00;;
19036;SDS011;9651;49.138;8.900;2023-04-24T09:12:07;4.07;;;1.25;;
19036;SDS011;9651;49.138;8.900;2023-04-24T09:16:12;3.05;;;0.88;;
19036;SDS011;9651;49.138;8.900;2023-04-24T09:20:15;2.55;;;0.98;;
19036;SDS011;9651;49.138;8.900;2023-04-24T09:24:19;2.78;;;0.90;;
19036;SDS011;9651;49.138;8.900;2023-04-24T09:28:25;3.03;;;0.90;;
19036;SDS011;9651;49.138;8.900;2023-04-24T09:32:32;1.33;;;0.90;;
19036;SDS011;9651;49.138;8.900;2023-04-24T09:36:34;2.45;;;1.10;;
19036;SDS011;9651;49.138;8.900;2023-04-24T09:40:38;1.27;;;0.88;;
19036;SDS011;9651;49.138;8.900;2023-04-24T09:44:41;5.25;;;1.50;;
19036;SDS011;9651;49.138;8.900;2023-04-24T09:48:45;2.90;;;1.20;;
19036;SDS011;9651;49.138;8.900;2023-04-24T09:52:47;2.67;;;1.67;;
19036;SDS011;9651;49.138;8.900;2023-04-24T09:56:57;2.28;;;1.42;;
19036;SDS011;9651;49.138;8.900;2023-04-24T10:01:00;3.55;;;1.80;;
19036;SDS011;9651;49.138;8.900;2023-04-24T10:05:04;2.20;;;1.67;;
19036;SDS011;9651;49.138;8.900;2023-04-24T10:09:06;5.82;;;1.60;;
19036;SDS011;9651;49.138;8.900;2023-04-24T10:13:11;3.20;;;2.08;;
19036;SDS011;9651;49.138;8.900;2023-04-24T10:17:14;2.90;;;2.30;;
19036;SDS011;9651;49.138;8.900;2023-04-24T10:21:18;3.20;;;2.25;;
19036;SDS011;9651;49.138;8.900;2023-04-24T10:25:20;4.13;;;2.25;;
19036;SDS011;9651;49.138;8.900;2023-04-24T10:29:23;2.75;;;2.20;;
19036;SDS011;9651;49.138;8.900;2023-04-24T10:33:26;2.80;;;2.17;;
19036;SDS011;9651;49.138;8.900;2023-04-24T10:37:30;3.97;;;2.00;;
19036;SDS011;9651;49.138;8.900;2023-04-24T10:41:38;3.38;;;1.90;;
19036;SDS011;9651;49.138;8.900;2023-04-24T10:45:40;6.68;;;2.10;;
19036;SDS011;9651;49.138;8.900;2023-04-24T10:49:42;3.65;;;2.17;;
19036;SDS011;9651;49.138;8.900;2023-04-24T10:53:45;3.55;;;2.08;;
19036;SDS011;9651;49.138;8.900;2023-04-24T10:58:03;2.63;;;1.70;;
19036;SDS011;9651;49.138;8.900;2023-04-24T11:02:06;2.72;;;1.70;;
19036;SDS011;9651;49.138;8.900;2023-04-24T11:06:09;1.75;;;1.65;;
19036;SDS011;9651;49.138;8.900;2023-04-24T11:10:25;3.67;;;1.80;;
19036;SDS011;9651;49.138;8.900;2023-04-24T11:14:27;4.90;;;2.00;;
19036;SDS011;9651;49.138;8.900;2023-04-24T11:18:36;3.33;;;2.00;;
19036;SDS011;9651;49.138;8.900;2023-04-24T11:22:39;2.77;;;2.13;;
19036;SDS011;9651;49.138;8.900;2023-04-24T11:26:42;3.43;;;2.30;;
19036;SDS011;9651;49.138;8.900;2023-04-24T11:30:46;4.83;;;2.67;;
19036;SDS011;9651;49.138;8.900;2023-04-24T11:34:48;6.77;;;2.70;;
19036;SDS011;9651;49.138;8.900;2023-04-24T11:38:51;2.80;;;2.47;;
19036;SDS011;9651;49.138;8.900;2023-04-24T11:42:55;2.92;;;2.50;;
19036;SDS011;9651;49.138;8.900;2023-04-24T11:46:57;6.20;;;2.47;;
19036;SDS011;9651;49.138;8.900;2023-04-24T11:51:01;4.25;;;2.47;;
19036;SDS011;9651;49.138;8.900;2023-04-24T11:55:03;6.15;;;2.00;;
19036;SDS011;9651;49.138;8.900;2023-04-24T11:59:08;4.63;;;2.03;;
19036;SDS011;9651;49.138;8.900;2023-04-24T12:03:11;6.30;;;2.80;;
19036;SDS011;9651;49.138;8.900;2023-04-24T12:07:13;4.15;;;2.33;;
19036;SDS011;9651;49.138;8.900;2023-04-24T12:11:16;2.17;;;1.85;;
19036;SDS011;9651;49.138;8.900;2023-04-24T12:15:22;2.30;;;2.05;;
19036;SDS011;9651;49.138;8.900;2023-04-24T12:19:25;2.28;;;1.90;;
19036;SDS011;9651;49.138;8.900;2023-04-24T12:23:33;3.53;;;2.53;;
19036;SDS011;9651;49.138;8.900;2023-04-24T12:27:36;3.35;;;1.73;;
19036;SDS011;9651;49.138;8.900;2023-04-24T12:31:39;3.15;;;2.05;;
19036;SDS011;9651;49.138;8.900;2023-04-24T12:35:41;3.40;;;2.10;;
19036;SDS011;9651;49.138;8.900;2023-04-24T12:39:44;2.30;;;2.10;;
19036;SDS011;9651;49.138;8.900;2023-04-24T12:44:00;2.58;;;2.20;;
19036;SDS011;9651;49.138;8.900;2023-04-24T12:48:04;3.38;;;2.50;;
19036;SDS011;9651;49.138;8.900;2023-04-24T12:52:06;4.10;;;2.83;;
19036;SDS011;9651;49.138;8.900;2023-04-24T12:56:08;3.22;;;2.92;;
19036;SDS011;9651;49.138;8.900;2023-04-24T13:00:10;4.07;;;2.88;;
19036;SDS011;9651;49.138;8.900;2023-04-24T13:04:14;7.55;;;2.60;;
19036;SDS011;9651;49.138;8.900;2023-04-24T13:08:17;3.97;;;2.45;;
19036;SDS011;9651;49.138;8.900;2023-04-24T13:12:19;3.05;;;2.65;;
19036;SDS011;9651;49.138;8.900;2023-04-24T13:16:21;4.75;;;3.08;;
19036;SDS011;9651;49.138;8.900;2023-04-24T13:20:25;5.72;;;3.30;;
19036;SDS011;9651;49.138;8.900;2023-04-24T13:24:28;4.53;;;2.88;;
19036;SDS011;9651;49.138;8.900;2023-04-24T13:28:29;4.27;;;3.00;;
19036;SDS011;9651;49.138;8.900;2023-04-24T13:32:31;5.80;;;3.90;;
19036;SDS011;9651;49.138;8.900;2023-04-24T13:36:36;3.58;;;2.83;;
19036;SDS011;9651;49.138;8.900;2023-04-24T13:40:38;3.08;;;2.40;;
19036;SDS011;9651;49.138;8.900;2023-04-24T13:44:41;4.00;;;2.38;;
19036;SDS011;9651;49.138;8.900;2023-04-24T13:48:43;3.97;;;2.60;;
19036;SDS011;9651;49.138;8.900;2023-04-24T13:52:46;3.78;;;2.40;;
19036;SDS011;9651;49.138;8.900;2023-04-24T13:56:50;3.03;;;2.20;;
19036;SDS011;9651;49.138;8.900;2023-04-24T14:00:52;3.47;;;2.22;;
19036;SDS011;9651;49.138;8.900;2023-04-24T14:04:54;14.15;;;2.10;;
19036;SDS011;9651;49.138;8.900;2023-04-24T14:08:57;2.22;;;1.88;;
19036;SDS011;9651;49.138;8.900;2023-04-24T14:12:59;2.83;;;1.80;;
19036;SDS011;9651;49.138;8.900;2023-04-24T14:17:03;2.95;;;2.03;;
19036;SDS011;9651;49.138;8.900;2023-04-24T14:21:05;4.45;;;1.83;;
19036;SDS011;9651;49.138;8.900;2023-04-24T14:25:08;4.40;;;2.40;;
19036;SDS011;9651;49.138;8.900;2023-04-24T14:29:10;5.30;;;2.28;;
19036;SDS011;9651;49.138;8.900;2023-04-24T14:33:12;2.60;;;2.15;;
19036;SDS011;9651;49.138;8.900;2023-04-24T14:37:15;3.47;;;2.83;;
19036;SDS011;9651;49.138;8.900;2023-04-24T14:41:18;5.85;;;2.70;;
19036;SDS011;9651;49.138;8.900;2023-04-24T14:45:20;5.18;;;2.88;;
19036;SDS011;9651;49.138;8.900;2023-04-24T14:49:23;3.53;;;2.90;;
19036;SDS011;9651;49.138;8.900;2023-04-24T14:53:25;2.83;;;2.28;;
19036;SDS011;9651;49.138;8.900;2023-04-24T14:57:28;3.08;;;2.10;;
19036;SDS011;9651;49.138;8.900;2023-04-24T15:01:30;4.65;;;2.58;;
19036;SDS011;9651;49.138;8.900;2023-04-24T15:05:32;3.47;;;2.58;;
19036;SDS011;9651;49.138;8.900;2023-04-24T15:09:34;5.63;;;2.60;;
19036;SDS011;9651;49.138;8.900;2023-04-24T15:13:37;4.40;;;2.45;;
19036;SDS011;9651;49.138;8.900;2023-04-24T15:17:39;2.65;;;2.00;;
19036;SDS011;9651;49.138;8.900;2023-04-24T15:21:41;3.22;;;1.98;;
19036;SDS011;9651;49.138;8.900;2023-04-24T15:25:44;1.83;;;1.60;;
19036;SDS011;9651;49.138;8.900;2023-04-24T15:29:47;3.42;;;2.22;;
19036;SDS011;9651;49.138;8.900;2023-04-24T15:33:49;2.47;;;2.00;;
19036;SDS011;9651;49.138;8.900;2023-04-24T15:37:51;3.45;;;1.92;;
19036;SDS011;9651;49.138;8.900;2023-04-24T15:41:53;3.45;;;2.20;;
19036;SDS011;9651;49.138;8.900;2023-04-24T15:45:56;3.50;;;1.88;;
19036;SDS011;9651;49.138;8.900;2023-04-24T15:49:58;2.67;;;1.75;;
19036;SDS011;9651;49.138;8.900;2023-04-24T15:54:00;3.13;;;1.77;;
19036;SDS011;9651;49.138;8.900;2023-04-24T15:58:02;2.55;;;1.90;;
19036;SDS011;9651;49.138;8.900;2023-04-24T16:02:06;2.58;;;1.83;;
19036;SDS011;9651;49.138;8.900;2023-04-24T16:06:10;3.58;;;2.17;;
19036;SDS011;9651;49.138;8.900;2023-04-24T16:10:13;2.50;;;1.88;;
19036;SDS011;9651;49.138;8.900;2023-04-24T16:14:15;6.25;;;2.40;;
19036;SDS011;9651;49.138;8.900;2023-04-24T16:18:18;3.88;;;2.22;;
19036;SDS011;9651;49.138;8.900;2023-04-24T16:22:20;3.88;;;2.22;;
19036;SDS011;9651;49.138;8.900;2023-04-24T16:26:22;2.22;;;2.03;;
19036;SDS011;9651;49.138;8.900;2023-04-24T16:30:24;2.40;;;1.73;;
19036;SDS011;9651;49.138;8.900;2023-04-24T16:34:27;3.45;;;3.15;;
19036;SDS011;9651;49.138;8.900;2023-04-24T16:38:29;3.38;;;3.00;;
19036;SDS011;9651;49.138;8.900;2023-04-24T16:42:31;3.17;;;2.80;;
19036;SDS011;9651;49.138;8.900;2023-04-24T16:46:33;3.50;;;2.55;;
19036;SDS011;9651;49.138;8.900;2023-04-24T16:50:36;4.13;;;2.58;;
19036;SDS011;9651;49.138;8.900;2023-04-24T16:54:38;3.17;;;2.55;;
19036;SDS011;9651;49.138;8.900;2023-04-24T16:58:40;4.47;;;2.50;;
19036;SDS011;9651;49.138;8.900;2023-04-24T17:02:42;4.50;;;2.15;;
19036;SDS011;9651;49.138;8.900;2023-04-24T17:06:48;2.60;;;2.40;;
19036;SDS011;9651;49.138;8.900;2023-04-24T17:10:50;3.90;;;2.22;;
19036;SDS011;9651;49.138;8.900;2023-04-24T17:14:52;4.53;;;2.70;;
19036;SDS011;9651;49.138;8.900;2023-04-24T17:18:54;4.60;;;2.97;;
19036;SDS011;9651;49.138;8.900;2023-04-24T17:22:58;3.40;;;3.10;;
19036;SDS011;9651;49.138;8.900;2023-04-24T17:27:00;4.87;;;2.93;;
19036;SDS011;9651;49.138;8.900;2023-04-24T17:31:02;5.00;;;2.80;;
19036;SDS011;9651;49.138;8.900;2023-04-24T17:35:04;3.80;;;2.90;;
19036;SDS011;9651;49.138;8.900;2023-04-24T17:39:08;4.83;;;3.20;;
19036;SDS011;9651;49.138;8.900;2023-04-24T17:43:10;3.03;;;2.30;;
19036;SDS011;9651;49.138;8.900;2023-04-24T17:47:17;2.63;;;2.30;;
19036;SDS011;9651;49.138;8.900;2023-04-24T17:51:21;5.47;;;4.30;;
19036;SDS011;9651;49.138;8.900;2023-04-24T17:55:24;4.50;;;3.60;;
19036;SDS011;9651;49.138;8.900;2023-04-24T17:59:26;3.37;;;2.70;;
19036;SDS011;9651;49.138;8.900;2023-04-24T18:03:28;3.37;;;3.07;;
19036;SDS011;9651;49.138;8.900;2023-04-24T18:07:30;3.60;;;3.10;;
19036;SDS011;9651;49.138;8.900;2023-04-24T18:11:34;4.33;;;4.00;;
19036;SDS011;9651;49.138;8.900;2023-04-24T18:15:39;6.47;;;5.87;;
19036;SDS011;9651;49.138;8.900;2023-04-24T18:19:42;4.53;;;2.67;;
19036;SDS011;9651;49.138;8.900;2023-04-24T18:23:44;2.37;;;1.70;;
19036;SDS011;9651;49.138;8.900;2023-04-24T18:27:47;2.13;;;1.83;;
19036;SDS011;9651;49.138;8.900;2023-04-24T18:31:50;3.27;;;1.77;;
19036;SDS011;9651;49.138;8.900;2023-04-24T18:35:51;2.77;;;2.10;;
19036;SDS011;9651;49.138;8.900;2023-04-24T18:39:53;2.57;;;2.03;;
19036;SDS011;9651;49.138;8.900;2023-04-24T18:43:57;3.33;;;2.20;;
19036;SDS011;9651;49.138;8.900;2023-04-24T18:47:59;2.50;;;1.90;;
19036;SDS011;9651;49.138;8.900;2023-04-24T18:52:00;3.77;;;2.17;;
19036;SDS011;9651;49.138;8.900;2023-04-24T18:56:02;3.80;;;2.60;;
19036;SDS011;9651;49.138;8.900;2023-04-24T19:00:06;2.27;;;2.07;;
19036;SDS011;9651;49.138;8.900;2023-04-24T19:04:09;2.50;;;2.30;;
19036;SDS011;9651;49.138;8.900;2023-04-24T19:08:11;2.30;;;2.10;;
19036;SDS011;9651;49.138;8.900;2023-04-24T19:12:13;6.53;;;2.93;;
19036;SDS011;9651;49.138;8.900;2023-04-24T19:16:16;2.53;;;2.33;;
19036;SDS011;9651;49.138;8.900;2023-04-24T19:20:18;4.33;;;2.60;;
19036;SDS011;9651;49.138;8.900;2023-04-24T19:24:20;2.90;;;2.60;;
19036;SDS011;9651;49.138;8.900;2023-04-24T19:28:22;3.80;;;2.70;;
19036;SDS011;9651;49.138;8.900;2023-04-24T19:32:26;2.50;;;2.30;;
19036;SDS011;9651;49.138;8.900;2023-04-24T19:36:28;4.07;;;2.47;;
19036;SDS011;9651;49.138;8.900;2023-04-24T19:40:30;3.00;;;2.70;;
19036;SDS011;9651;49.138;8.900;2023-04-24T19:44:32;3.23;;;2.93;;
19036;SDS011;9651;49.138;8.900;2023-04-24T19:48:35;4.10;;;3.70;;
19036;SDS011;9651;49.138;8.900;2023-04-24T19:52:37;3.63;;;3.17;;
19036;SDS011;9651;49.138;8.900;2023-04-24T19:56:39;4.20;;;3.03;;
19036;SDS011;9651;49.138;8.900;2023-04-24T20:00:41;3.30;;;2.90;;
19036;SDS011;9651;49.138;8.900;2023-04-24T20:04:45;4.57;;;3.10;;
19036;SDS011;9651;49.138;8.900;2023-04-24T20:08:47;5.77;;;3.30;;
19036;SDS011;9651;49.138;8.900;2023-04-24T20:12:48;4.23;;;3.07;;
19036;SDS011;9651;49.138;8.900;2023-04-24T20:16:51;4.97;;;3.60;;
19036;SDS011;9651;49.138;8.900;2023-04-24T20:20:54;4.43;;;3.40;;
19036;SDS011;9651;49.138;8.900;2023-04-24T20:24:58;3.90;;;3.40;;
19036;SDS011;9651;49.138;8.900;2023-04-24T20:29:00;4.00;;;3.07;;
19036;SDS011;9651;49.138;8.900;2023-04-24T20:33:02;4.93;;;4.13;;
19036;SDS011;9651;49.138;8.900;2023-04-24T20:37:06;4.23;;;3.23;;
19036;SDS011;9651;49.138;8.900;2023-04-24T20:41:08;3.97;;;3.13;;
19036;SDS011;9651;49.138;8.900;2023-04-24T20:45:10;3.80;;;3.27;;
19036;SDS011;9651;49.138;8.900;2023-04-24T20:49:12;3.97;;;3.30;;
19036;SDS011;9651;49.138;8.900;2023-04-24T20:53:15;4.13;;;3.73;;
19036;SDS011;9651;49.138;8.900;2023-04-24T20:57:17;5.53;;;4.17;;
19036;SDS011;9651;49.138;8.900;2023-04-24T21:01:19;4.67;;;3.90;;
19036;SDS011;9651;49.138;8.900;2023-04-24T21:05:21;5.57;;;3.90;;
19036;SDS011;9651;49.138;8.900;2023-04-24T21:09:24;5.00;;;4.00;;
19036;SDS011;9651;49.138;8.900;2023-04-24T21:13:26;4.20;;;3.60;;
19036;SDS011;9651;49.138;8.900;2023-04-24T21:17:28;4.83;;;3.77;;
19036;SDS011;9651;49.138;8.900;2023-04-24T21:21:30;6.03;;;4.00;;
19036;SDS011;9651;49.138;8.900;2023-04-24T21:25:34;6.60;;;3.57;;
19036;SDS011;9651;49.138;8.900;2023-04-24T21:29:37;6.90;;;3.73;;
19036;SDS011;9651;49.138;8.900;2023-04-24T21:33:39;3.83;;;3.10;;
19036;SDS011;9651;49.138;8.900;2023-04-24T21:37:40;3.70;;;3.30;;
19036;SDS011;9651;49.138;8.900;2023-04-24T21:41:44;7.33;;;2.93;;
19036;SDS011;9651;49.138;8.900;2023-04-24T21:45:46;3.90;;;3.43;;
19036;SDS011;9651;49.138;8.900;2023-04-24T21:49:49;4.80;;;3.53;;
19036;SDS011;9651;49.138;8.900;2023-04-24T21:53:51;4.47;;;3.87;;
19036;SDS011;9651;49.138;8.900;2023-04-24T21:57:54;4.40;;;3.97;;
19036;SDS011;9651;49.138;8.900;2023-04-24T22:01:56;4.87;;;4.00;;
19036;SDS011;9651;49.138;8.900;2023-04-24T22:05:58;4.70;;;3.53;;
19036;SDS011;9651;49.138;8.900;2023-04-24T22:10:00;4.00;;;3.33;;
19036;SDS011;9651;49.138;8.900;2023-04-24T22:14:05;3.57;;;3.23;;
19036;SDS011;9651;49.138;8.900;2023-04-24T22:18:06;4.93;;;3.77;;
19036;SDS011;9651;49.138;8.900;2023-04-24T22:22:08;3.47;;;2.97;;
19036;SDS011;9651;49.138;8.900;2023-04-24T22:26:10;4.87;;;3.30;;
19036;SDS011;9651;49.138;8.900;2023-04-24T22:30:13;3.37;;;3.03;;
19036;SDS011;9651;49.138;8.900;2023-04-24T22:34:16;4.30;;;3.40;;
19036;SDS011;9651;49.138;8.900;2023-04-24T22:38:18;3.83;;;3.10;;
19036;SDS011;9651;49.138;8.900;2023-04-24T22:42:20;4.47;;;3.47;;
19036;SDS011;9651;49.138;8.900;2023-04-24T22:46:23;5.30;;;3.67;;
19036;SDS011;9651;49.138;8.900;2023-04-24T22:50:25;7.07;;;3.63;;
19036;SDS011;9651;49.138;8.900;2023-04-24T22:54:28;3.97;;;3.37;;
19036;SDS011;9651;49.138;8.900;2023-04-24T22:58:30;4.43;;;3.57;;
19036;SDS011;9651;49.138;8.900;2023-04-24T23:02:33;4.47;;;3.00;;
19036;SDS011;9651;49.138;8.900;2023-04-24T23:06:35;4.10;;;3.37;;
19036;SDS011;9651;49.138;8.900;2023-04-24T23:10:37;6.57;;;3.57;;
19036;SDS011;9651;49.138;8.900;2023-04-24T23:14:39;6.77;;;3.73;;
19036;SDS011;9651;49.138;8.900;2023-04-24T23:18:43;4.40;;;3.43;;
19036;SDS011;9651;49.138;8.900;2023-04-24T23:22:46;4.60;;;3.53;;
19036;SDS011;9651;49.138;8.900;2023-04-24T23:26:47;4.50;;;3.80;;
19036;SDS011;9651;49.138;8.900;2023-04-24T23:30:49;5.10;;;3.93;;
19036;SDS011;9651;49.138;8.900;2023-04-24T23:34:53;4.50;;;3.77;;
19036;SDS011;9651;49.138;8.900;2023-04-24T23:38:55;4.40;;;3.80;;
19036;SDS011;9651;49.138;8.900;2023-04-24T23:42:57;5.23;;;4.17;;
19036;SDS011;9651;49.138;8.900;2023-04-24T23:46:59;5.30;;;3.83;;
19036;SDS011;9651;49.138;8.900;2023-04-24T23:51:02;4.87;;;4.00;;
19036;SDS011;9651;49.138;8.900;2023-04-24T23:55:05;6.27;;;4.20;;
19036;SDS011;9651;49.138;8.900;2023-04-24T23:59:08;4.50;;;3.60;;
